Time;durP1;ratioP1;P1;durP2;ratioP2;P2;SDS_P1;SDS_P2;PMS_P1;PMS_P2;Temp;Humidity;BMP_temperature;BMP_pressure;BME280_temperature;BME280_humidity;BME280_pressure;Samples;Min_cycle;Max_cycle;Signal;HPM_P1;HPM_P2
2023/01/03 00:01:39;;;;;;;1.00;0.90;;;10.60;99.90;;;10.74;80.54;101761.22;5024102;28;20647;-67
2023/01/03 00:04:06;;;;;;;0.60;0.60;;;10.70;99.90;;;10.68;80.98;101763.31;5011086;28;20985;-68
2023/01/03 00:06:37;;;;;;;0.63;0.63;;;10.60;99.90;;;10.62;80.76;101768.88;5024788;28;20656;-68
2023/01/03 00:09:08;;;;;;;0.70;0.70;;;10.60;99.90;;;10.55;80.96;101780.56;5000831;28;20635;-67
2023/01/03 00:14:27;;;;;;;0.63;0.60;;;10.40;99.90;;;10.41;82.26;101777.84;5014217;28;20625;-67
2023/01/03 00:16:58;;;;;;;0.80;0.80;;;10.30;99.90;;;10.32;82.51;101779.19;4997572;28;20629;-66
2023/01/03 00:19:37;;;;;;;0.63;0.63;;;10.30;99.90;;;10.26;82.74;101782.13;5033412;28;20632;-66
2023/01/03 00:22:04;;;;;;;0.60;0.60;;;10.20;99.90;;;10.18;83.43;101780.84;5007227;28;21072;-69
2023/01/03 00:24:31;;;;;;;1.00;1.00;;;10.10;99.90;;;10.14;83.05;101775.75;5014480;28;21093;-69
2023/01/03 00:26:58;;;;;;;0.80;0.80;;;10.00;99.90;;;10.14;82.95;101780.13;5004215;28;21274;-68
2023/01/03 00:29:25;;;;;;;1.40;1.30;;;10.00;99.90;;;10.11;83.95;101777.69;5030623;28;21048;-67
2023/01/03 00:31:52;;;;;;;0.87;0.87;;;10.00;99.90;;;10.09;83.70;101777.72;5010243;28;20643;-67
2023/01/03 00:34:19;;;;;;;1.10;1.10;;;10.00;99.90;;;10.11;83.77;101777.69;5031365;28;20670;-67
2023/01/03 00:36:46;;;;;;;1.20;1.20;;;10.10;99.90;;;10.07;83.92;101771.75;5014893;28;20643;-69
2023/01/03 00:39:13;;;;;;;0.90;0.90;;;10.00;99.90;;;10.04;84.10;101769.31;5032153;28;20636;-67
2023/01/03 00:41:40;;;;;;;1.00;0.80;;;10.00;99.90;;;10.02;83.31;101771.16;5026085;28;20731;-67
2023/01/03 00:44:08;;;;;;;0.73;0.73;;;10.00;99.90;;;9.97;83.59;101767.09;5025999;28;21200;-67
2023/01/03 00:46:35;;;;;;;0.67;0.67;;;9.90;99.90;;;9.88;84.11;101767.59;5029232;28;20656;-67
2023/01/03 00:49:03;;;;;;;0.60;0.60;;;9.80;99.90;;;9.83;84.59;101775.63;5015175;28;20624;-68
2023/01/03 00:51:33;;;;;;;0.80;0.80;;;9.80;99.90;;;9.79;84.92;101779.31;5027332;28;20629;-68
2023/01/03 00:54:02;;;;;;;1.00;0.97;;;9.70;99.90;;;9.74;85.20;101780.44;5011228;28;20649;-66
2023/01/03 00:56:36;;;;;;;1.13;1.13;;;9.70;99.90;;;9.74;85.39;101780.44;5019068;28;20652;-67
2023/01/03 00:59:04;;;;;;;1.50;1.40;;;9.60;99.90;;;9.74;85.73;101780.44;5038709;28;20624;-67
2023/01/03 01:01:45;;;;;;;2.07;1.10;;;9.60;99.90;;;9.76;85.74;101796.84;5014579;28;20624;-67
2023/01/03 01:04:28;;;;;;;1.00;1.00;;;9.70;99.90;;;9.78;85.62;101795.88;5013747;28;21025;-66
2023/01/03 01:07:02;;;;;;;1.53;1.43;;;9.70;99.90;;;9.83;85.64;101786.06;5025265;28;21189;-67
2023/01/03 01:09:33;;;;;;;0.80;0.80;;;9.80;99.90;;;9.89;85.53;101793.56;5024041;28;20616;-68
2023/01/03 01:12:00;;;;;;;0.90;0.90;;;9.80;99.90;;;9.90;85.35;101784.81;5030971;28;20631;-67
2023/01/03 01:14:29;;;;;;;0.73;0.73;;;9.80;99.90;;;9.90;85.21;101787.41;4996211;28;20657;-67
2023/01/03 01:17:02;;;;;;;3.10;1.33;;;9.80;99.90;;;9.92;85.72;101793.38;5017216;28;20770;-67
2023/01/03 01:19:37;;;;;;;1.10;1.10;;;9.80;99.90;;;9.91;85.28;101789.13;5027469;28;21183;-67
2023/01/03 01:22:04;;;;;;;1.00;1.00;;;9.80;99.90;;;9.92;85.61;101795.19;5008148;28;20624;-70
2023/01/03 01:24:32;;;;;;;0.87;0.87;;;9.90;99.90;;;9.92;85.94;101800.41;4993843;28;20593;-68
2023/01/03 01:26:59;;;;;;;0.80;0.80;;;9.80;99.90;;;9.92;85.37;101800.41;5003757;28;20625;-68
2023/01/03 01:29:26;;;;;;;0.90;0.90;;;9.90;99.90;;;9.92;85.16;101803.00;5018050;28;20627;-67
2023/01/03 01:31:53;;;;;;;0.77;0.73;;;9.90;99.90;;;9.91;85.48;101802.16;5020063;28;21230;-69
2023/01/03 01:34:21;;;;;;;1.50;1.10;;;9.80;99.90;;;9.90;85.56;101805.66;5031605;28;20751;-69
2023/01/03 01:36:48;;;;;;;0.73;0.73;;;9.80;99.90;;;9.90;85.72;101807.44;5014039;28;20700;-66
2023/01/03 01:39:21;;;;;;;0.83;0.83;;;9.80;99.90;;;9.89;85.75;101810.97;5038848;28;20645;-66
2023/01/03 01:45:07;;;;;;;0.83;0.83;;;9.80;99.90;;;9.79;85.89;101810.59;5012163;28;20638;-66
2023/01/03 01:47:52;;;;;;;0.63;0.63;;;9.70;99.90;;;9.75;85.61;101809.03;4995154;28;20633;-67
2023/01/03 01:50:41;;;;;;;0.60;0.60;;;9.70;99.90;;;9.67;85.72;101807.75;5031124;28;20620;-70
2023/01/03 01:53:21;;;;;;;0.77;0.77;;;9.70;99.90;;;9.58;86.24;101816.03;5002339;28;20661;-68
2023/01/03 01:56:05;;;;;;;0.63;0.63;;;9.60;99.90;;;9.51;86.98;101825.06;5013610;28;20647;-67
2023/01/03 01:58:38;;;;;;;0.90;0.90;;;9.50;99.90;;;9.45;86.76;101814.94;5010209;28;20624;-69
2023/01/03 02:01:10;;;;;;;1.10;1.10;;;9.40;99.90;;;9.40;87.42;101817.75;5009526;28;20616;-67
2023/01/03 02:03:39;;;;;;;0.80;0.80;;;9.40;99.90;;;9.36;87.69;101822.28;5011674;28;20643;-67
2023/01/03 02:06:10;;;;;;;1.07;1.07;;;9.30;99.90;;;9.35;87.51;101820.56;5010119;28;20656;-67
2023/01/03 02:08:36;;;;;;;1.20;1.10;;;9.30;99.90;;;9.33;87.62;101832.84;5008191;28;20632;-67
2023/01/03 02:11:34;;;;;;;1.20;1.20;;;9.30;99.90;;;9.30;87.98;101827.78;5029480;28;20596;-66
2023/01/03 02:15:02;;;;;;;1.10;1.10;;;9.20;99.90;;;9.30;87.87;101834.75;5027340;28;20671;-67
2023/01/03 02:17:52;;;;;;;0.63;0.63;;;9.30;99.90;;;9.27;87.72;101827.91;5004428;28;20627;-69
2023/01/03 02:20:35;;;;;;;0.70;0.70;;;9.20;99.90;;;9.23;87.56;101836.81;5024961;28;20659;-67
2023/01/03 02:23:26;;;;;;;0.80;0.80;;;9.20;99.90;;;9.11;87.70;101837.38;5028872;28;20616;-66
2023/01/03 02:26:34;;;;;;;1.60;1.10;;;9.10;99.90;;;8.85;89.63;101829.94;5012508;28;20667;-69
2023/01/03 02:29:19;;;;;;;1.13;1.03;;;8.90;99.90;;;8.75;90.04;101828.66;5010228;28;20639;-67
2023/01/03 02:32:00;;;;;;;1.10;1.10;;;8.70;99.90;;;8.71;90.58;101832.28;5010373;28;21040;-67
2023/01/03 02:37:28;;;;;;;1.20;1.20;;;8.60;99.90;;;8.57;91.31;101817.31;5009403;28;20658;-67
2023/01/03 02:40:13;;;;;;;1.93;0.73;;;8.60;99.90;;;8.51;92.01;101814.16;5003527;28;20622;-69
2023/01/03 02:43:08;;;;;;;1.57;1.00;;;8.50;99.90;;;8.45;92.06;101815.25;5006448;28;20629;-68
2023/01/03 02:46:12;;;;;;;0.70;0.70;;;8.40;99.90;;;8.38;92.85;101818.19;4976213;28;20669;-68
2023/01/03 02:49:07;;;;;;;1.10;1.07;;;8.40;99.90;;;8.32;93.24;101808.94;5008032;28;21061;-68
2023/01/03 02:51:49;;;;;;;0.90;0.90;;;8.30;99.90;;;8.27;93.43;101815.22;4989434;28;20617;-67
2023/01/03 02:54:27;;;;;;;1.17;1.17;;;8.20;99.90;;;8.29;93.18;101808.19;5004853;28;20657;-66
2023/01/03 02:57:08;;;;;;;1.10;1.07;;;8.30;99.90;;;8.29;94.01;101809.03;5001026;28;20652;-67
2023/01/03 02:59:52;;;;;;;1.23;1.20;;;8.30;99.90;;;8.33;93.79;101809.75;4980239;28;20628;-69
2023/01/03 03:02:24;;;;;;;1.03;1.03;;;8.30;99.90;;;8.29;93.51;101814.25;4991832;28;20648;-66
2023/01/03 03:04:55;;;;;;;0.77;0.77;;;8.20;99.90;;;8.27;94.22;101804.81;5009503;28;20625;-65
2023/01/03 03:07:34;;;;;;;1.00;1.00;;;8.20;99.90;;;8.29;94.43;101808.19;4992672;28;20637;-66
2023/01/03 03:15:56;;;;;;;0.77;0.77;;;8.10;99.90;;;8.03;94.21;101821.47;4999227;28;20641;-66
2023/01/03 03:18:59;;;;;;;0.93;0.90;;;8.00;99.90;;;7.97;94.66;101832.94;5011231;28;20633;-67
2023/01/03 03:30:02;;;;;;;0.77;0.77;;;7.80;99.90;;;7.75;97.08;101845.97;4982783;28;20641;-66
2023/01/03 03:32:32;;;;;;;1.03;1.03;;;7.70;99.90;;;7.69;97.04;101841.03;4995801;28;20667;-67
2023/01/03 03:35:02;;;;;;;1.43;1.00;;;7.70;99.90;;;7.68;96.95;101847.16;4996585;28;20668;-67
2023/01/03 03:37:33;;;;;;;1.20;1.20;;;7.60;99.90;;;7.68;97.11;101848.91;4996015;28;21213;-67
2023/01/03 03:46:11;;;;;;;0.93;0.93;;;7.70;99.90;;;7.69;96.72;101855.78;5013952;28;20633;-68
2023/01/03 03:52:04;;;;;;;0.90;0.90;;;7.60;99.90;;;7.63;96.81;101854.28;4981864;28;20614;-67
2023/01/03 03:54:36;;;;;;;1.50;1.20;;;7.60;99.90;;;7.62;97.95;101855.19;5011418;28;20669;-68
2023/01/03 03:57:20;;;;;;;1.10;1.10;;;7.60;99.90;;;7.61;97.04;101861.31;4994242;28;21207;-66
2023/01/03 03:59:53;;;;;;;1.40;1.30;;;7.60;99.90;;;7.63;96.67;101864.69;4989487;28;20676;-68
2023/01/03 04:02:22;;;;;;;1.20;1.20;;;7.60;99.90;;;7.64;97.63;101863.78;5006025;28;20637;-66
2023/01/03 04:04:56;;;;;;;0.87;0.87;;;7.60;99.90;;;7.64;97.73;101856.00;5000436;28;20717;-66
2023/01/03 04:07:22;;;;;;;1.27;1.07;;;7.60;99.90;;;7.67;98.10;101855.00;5012878;28;20740;-68
2023/01/03 04:09:50;;;;;;;1.27;1.27;;;7.60;99.90;;;7.70;97.57;101849.69;5012224;28;20631;-67
2023/01/03 04:12:17;;;;;;;1.63;1.53;;;7.70;99.90;;;7.74;97.58;101857.31;5012851;28;20633;-68
2023/01/03 04:14:43;;;;;;;1.57;1.47;;;7.70;99.90;;;7.78;98.07;101856.25;5012722;28;20652;-66
2023/01/03 04:17:11;;;;;;;0.90;0.90;;;7.80;99.90;;;7.80;97.91;101851.84;5012336;28;20627;-67
2023/01/03 04:19:38;;;;;;;1.20;1.10;;;7.80;99.90;;;7.80;97.34;101859.63;5010154;28;20740;-66
2023/01/03 04:22:04;;;;;;;1.17;1.17;;;7.80;99.90;;;7.75;97.06;101858.97;5012509;28;21035;-66
2023/01/03 04:24:31;;;;;;;1.23;1.13;;;7.80;99.90;;;7.74;98.00;101857.31;5012399;28;21239;-67
2023/01/03 04:26:58;;;;;;;0.87;0.87;;;7.70;99.90;;;7.72;97.07;101863.47;4994752;28;20633;-67
2023/01/03 04:29:25;;;;;;;0.80;0.80;;;7.70;99.90;;;7.67;98.21;101863.66;5011408;28;20669;-70
2023/01/03 04:31:52;;;;;;;1.20;1.20;;;7.70;99.90;;;7.65;97.96;101865.47;5008457;28;20626;-67
2023/01/03 04:34:19;;;;;;;1.00;1.00;;;7.60;99.90;;;7.65;98.06;101867.22;4993231;28;20669;-66
2023/01/03 04:36:46;;;;;;;0.90;0.90;;;7.70;99.90;;;7.66;98.06;101872.38;5011467;28;21403;-67
2023/01/03 04:39:13;;;;;;;1.77;1.33;;;7.60;99.90;;;7.66;98.07;101867.16;5012509;28;20617;-67
2023/01/03 04:41:40;;;;;;;1.77;1.33;;;7.70;99.90;;;7.68;98.49;101870.53;5006436;28;21154;-67
2023/01/03 04:44:08;;;;;;;1.40;1.40;;;7.70;99.90;;;7.69;98.28;101872.22;5011797;28;20656;-67
2023/01/03 04:46:39;;;;;;;1.23;1.20;;;7.70;99.90;;;7.67;97.74;101880.97;4999490;28;20652;-67
2023/01/03 04:49:08;;;;;;;0.90;0.90;;;7.70;99.90;;;7.65;97.97;101875.00;4992831;28;20668;-67
2023/01/03 04:51:35;;;;;;;1.07;0.80;;;7.60;99.90;;;7.61;98.41;101876.88;5011817;28;20974;-68
2023/01/03 04:54:04;;;;;;;0.43;0.43;;;7.60;99.90;;;7.56;98.78;101878.00;4993798;28;20671;-66
2023/01/03 04:56:38;;;;;;;1.00;0.90;;;7.50;99.90;;;7.55;98.81;101871.94;4994531;28;20635;-67
2023/01/03 04:59:05;;;;;;;1.40;1.27;;;7.50;99.90;;;7.51;99.68;101878.16;5011415;28;20675;-67
2023/01/03 05:01:32;;;;;;;1.10;1.10;;;7.50;99.90;;;7.51;98.89;101878.16;5012613;28;21230;-67
2023/01/03 05:04:01;;;;;;;1.37;1.27;;;7.50;99.90;;;7.52;98.81;101879.84;5010668;28;20637;-69
2023/01/03 05:06:28;;;;;;;1.23;1.13;;;7.50;99.90;;;7.56;98.72;101870.19;4995391;28;20711;-67
2023/01/03 05:08:55;;;;;;;1.23;1.20;;;7.50;99.90;;;7.57;98.57;101875.31;5010869;28;20679;-67
2023/01/03 05:11:22;;;;;;;1.23;1.23;;;7.50;99.90;;;7.58;98.15;101874.41;5010658;28;20707;-68
2023/01/03 05:13:49;;;;;;;1.33;1.27;;;7.50;99.90;;;7.59;98.14;101876.09;5010699;28;20939;-66
2023/01/03 05:16:16;;;;;;;1.00;1.00;;;7.60;99.90;;;7.61;97.76;101869.09;4995245;28;20633;-68
2023/01/03 05:18:43;;;;;;;1.77;1.63;;;7.60;99.90;;;7.62;98.65;101872.53;5009027;28;20732;-66
2023/01/03 05:26:51;;;;;;;1.00;1.00;;;7.60;99.90;;;7.63;98.43;101884.59;5010894;28;20660;-67
2023/01/03 05:29:20;;;;;;;4.90;1.20;;;7.60;99.90;;;7.62;98.28;101894.16;4978598;28;20636;-67
2023/01/03 05:31:48;;;;;;;1.13;1.13;;;7.60;99.90;;;7.60;97.30;101895.97;4988068;28;20642;-67
2023/01/03 05:34:15;;;;;;;1.37;1.03;;;7.60;99.90;;;7.61;97.19;101895.06;5008112;28;21024;-66
2023/01/03 05:36:42;;;;;;;1.17;1.07;;;7.60;99.90;;;7.60;97.05;101889.94;4991699;28;20656;-67
2023/01/03 05:39:09;;;;;;;6.43;1.00;;;7.60;99.90;;;7.55;97.37;101903.09;4993479;28;20633;-66
2023/01/03 05:44:22;;;;;;;1.50;1.50;;;7.50;99.90;;;7.51;97.36;101906.72;5011469;28;20621;-66
2023/01/03 05:46:49;;;;;;;1.67;1.57;;;7.50;99.90;;;7.52;96.87;101895.41;4993083;28;21306;-67
2023/01/03 05:49:16;;;;;;;1.20;1.20;;;7.50;99.90;;;7.52;96.85;101897.16;5009100;28;20984;-67
2023/01/03 05:51:42;;;;;;;1.83;1.60;;;7.50;99.90;;;7.53;96.38;101902.31;5009512;28;20633;-66
2023/01/03 05:54:14;;;;;;;2.10;2.00;;;7.50;99.90;;;7.53;97.20;101897.13;5011312;28;21254;-67
2023/01/03 05:56:42;;;;;;;2.07;1.97;;;7.50;99.90;;;7.52;96.21;101898.03;5008858;28;20655;-67
2023/01/03 05:59:09;;;;;;;2.20;2.10;;;7.50;99.90;;;7.53;96.53;101896.28;5009567;28;21000;-67
2023/01/03 06:01:36;;;;;;;2.37;2.17;;;7.50;99.90;;;7.53;96.72;101889.34;5010155;28;20640;-67
2023/01/03 06:04:04;;;;;;;2.17;2.00;;;7.50;99.90;;;7.54;96.79;101884.97;5009625;28;20630;-67
2023/01/03 06:06:30;;;;;;;2.67;2.47;;;7.60;99.90;;;7.56;96.04;101891.78;4993411;28;20653;-67
2023/01/03 06:08:58;;;;;;;3.03;2.83;;;7.60;99.90;;;7.56;96.54;101885.78;5009791;28;20629;-67
2023/01/03 06:11:25;;;;;;;2.40;2.30;;;7.60;99.90;;;7.55;96.38;101891.88;4992963;28;20757;-69
2023/01/03 06:13:52;;;;;;;3.97;2.97;;;7.60;99.90;;;7.55;96.17;101892.72;5008940;28;20668;-67
2023/01/03 06:19:07;;;;;;;1.80;1.70;;;7.60;99.90;;;7.59;95.53;101894.28;5009523;28;20724;-67
2023/01/03 06:21:34;;;;;;;2.00;1.90;;;7.60;99.90;;;7.64;95.91;101899.31;5010215;28;21093;-67
2023/01/03 06:24:01;;;;;;;4.30;2.13;;;7.60;99.90;;;7.64;96.02;101900.16;4993162;28;21201;-66
2023/01/03 06:26:28;;;;;;;2.47;1.70;;;7.70;99.90;;;7.71;95.33;101908.53;5009501;28;20648;-69
2023/01/03 06:28:55;;;;;;;1.03;1.03;;;7.70;99.90;;;7.73;95.26;101906.75;5010448;28;20636;-67
2023/01/03 06:31:22;;;;;;;1.23;1.23;;;7.80;99.90;;;7.72;95.19;101912.81;5006734;28;21009;-67
2023/01/03 06:33:49;;;;;;;1.77;1.67;;;7.80;99.90;;;7.66;95.96;101926.91;5017213;28;20640;-67
2023/01/03 06:36:20;;;;;;;2.10;1.60;;;7.70;99.90;;;7.65;95.77;101925.22;5010701;28;20652;-67
2023/01/03 06:38:47;;;;;;;1.70;1.60;;;7.70;99.90;;;7.63;95.59;101921.81;4992824;28;20630;-67
2023/01/03 06:41:15;;;;;;;1.40;1.33;;;7.60;99.90;;;7.64;95.93;101928.72;5009859;28;20633;-68
2023/01/03 06:43:42;;;;;;;1.10;1.10;;;7.60;99.90;;;7.66;94.82;101924.31;5009813;28;20656;-70
2023/01/03 06:54:34;;;;;;;1.70;1.63;;;7.70;99.90;;;7.63;95.21;101921.81;5001143;28;21032;-66
2023/01/03 06:57:02;;;;;;;2.00;1.90;;;7.70;99.90;;;7.66;95.91;101921.72;4991396;28;20736;-67
2023/01/03 06:59:29;;;;;;;1.73;1.63;;;7.70;99.90;;;7.70;95.10;101933.69;5009599;28;20648;-67
2023/01/03 07:01:56;;;;;;;2.20;2.00;;;7.70;99.90;;;7.70;95.92;101927.63;5011195;28;20652;-67
2023/01/03 07:04:25;;;;;;;5.90;2.50;;;7.70;99.90;;;7.73;95.47;101925.75;5012043;28;20637;-67
2023/01/03 07:06:53;;;;;;;2.70;2.00;;;7.70;99.90;;;7.74;95.32;101931.78;5009300;28;20676;-67
2023/01/03 07:09:19;;;;;;;2.40;2.20;;;7.70;99.90;;;7.74;95.38;101930.06;5008972;28;21240;-67
2023/01/03 07:11:46;;;;;;;2.87;2.10;;;7.80;99.90;;;7.75;94.79;101931.72;4994774;28;20656;-69
2023/01/03 07:14:13;;;;;;;3.13;2.30;;;7.80;99.90;;;7.74;94.71;101934.38;5013090;28;20741;-66
2023/01/03 07:16:46;;;;;;;1.90;1.77;;;7.80;99.90;;;7.77;94.92;101945.50;4994329;28;20661;-67
2023/01/03 07:19:18;;;;;;;1.80;1.70;;;7.80;99.90;;;7.81;93.75;101938.44;5001653;28;21198;-66
2023/01/03 07:21:45;;;;;;;1.57;1.47;;;7.80;99.90;;;7.82;93.55;101948.78;4987037;28;21189;-66
2023/01/03 07:24:17;;;;;;;1.70;1.60;;;7.90;99.90;;;7.86;94.20;101948.66;5005851;28;20740;-66
2023/01/03 07:26:44;;;;;;;1.70;1.60;;;7.90;99.90;;;7.86;93.66;101944.28;5013703;28;21023;-67
2023/01/03 07:29:11;;;;;;;1.77;1.70;;;7.90;99.90;;;7.86;93.52;101946.88;5011759;28;20750;-70
2023/01/03 07:31:40;;;;;;;1.30;1.30;;;7.90;99.90;;;7.87;93.16;101950.34;5012247;28;21039;-67
2023/01/03 07:34:08;;;;;;;0.97;0.97;;;7.90;99.90;;;7.89;92.77;101954.56;5011160;28;20637;-67
2023/01/03 07:36:35;;;;;;;1.50;1.40;;;7.90;99.90;;;7.87;93.19;101958.13;5011165;28;21243;-67
2023/01/03 07:39:02;;;;;;;1.90;1.80;;;7.90;99.90;;;7.84;93.09;101954.75;5011441;28;21007;-67
2023/01/03 07:44:15;;;;;;;2.10;1.90;;;7.90;99.90;;;7.91;93.85;101968.34;5012237;28;20684;-68
2023/01/03 07:46:42;;;;;;;2.00;1.90;;;7.90;99.90;;;7.94;92.94;101964.78;5010028;28;20691;-66
2023/01/03 07:49:09;;;;;;;3.03;2.07;;;7.90;99.90;;;7.98;92.56;101966.34;5010981;28;20664;-66
2023/01/03 07:51:38;;;;;;;1.60;1.50;;;8.00;99.90;;;7.98;92.85;101972.41;5012370;28;20625;-67
2023/01/03 07:54:06;;;;;;;1.70;1.60;;;8.00;99.90;;;8.02;92.51;101973.13;5008299;28;20636;-67
2023/01/03 07:56:33;;;;;;;2.30;1.87;;;8.00;99.90;;;8.01;92.23;101974.88;5001192;28;20654;-67
2023/01/03 07:59:00;;;;;;;2.30;2.10;;;8.00;99.90;;;7.99;92.47;101975.84;5013286;28;20625;-68
2023/01/03 08:01:29;;;;;;;3.23;1.87;;;8.00;99.90;;;7.98;91.96;101976.75;5001761;28;20638;-68
2023/01/03 08:03:56;;;;;;;2.97;2.03;;;8.00;99.90;;;7.98;91.79;101984.56;5009203;28;20658;-68
2023/01/03 08:06:23;;;;;;;2.77;2.53;;;8.00;99.90;;;8.01;91.64;101979.25;4965964;28;22314;-67
2023/01/03 08:14:22;;;;;;;6.10;3.30;;;8.10;99.90;;;8.14;90.68;101994.25;5013681;28;20657;-67
2023/01/03 08:16:56;;;;;;;9.40;4.10;;;8.10;99.90;;;8.18;91.07;101987.19;5012585;28;20681;-68
2023/01/03 08:19:24;;;;;;;6.33;3.67;;;8.20;99.90;;;8.26;90.80;102000.78;5009644;28;21025;-68
2023/01/03 08:21:51;;;;;;;6.17;4.10;;;8.30;99.90;;;8.29;91.30;101998.88;4994761;28;21047;-68
2023/01/03 08:24:18;;;;;;;3.23;2.93;;;8.30;99.90;;;8.36;91.11;102013.34;5000980;28;20637;-67
2023/01/03 08:26:45;;;;;;;4.37;3.90;;;8.40;99.90;;;8.42;90.99;102002.69;4995286;28;20664;-67
2023/01/03 08:29:12;;;;;;;4.37;3.90;;;8.40;99.90;;;8.49;90.08;102008.47;4993590;28;20707;-68
2023/01/03 08:31:44;;;;;;;3.03;2.60;;;8.50;99.90;;;8.58;90.13;102011.53;5013173;28;20644;-68
2023/01/03 08:34:12;;;;;;;5.90;3.40;;;8.60;99.90;;;8.76;88.94;102016.88;4995413;28;20676;-66
2023/01/03 08:36:57;;;;;;;4.30;3.50;;;8.80;99.90;;;8.85;88.47;102012.13;5030849;23;20708;-63
2023/01/03 08:39:31;;;;;;;3.20;2.90;;;8.90;99.90;;;8.92;87.68;102023.94;5001249;28;20625;-65
2023/01/03 08:42:02;;;;;;;4.07;3.30;;;8.90;99.90;;;9.00;87.23;102021.88;4996789;28;20963;-65
2023/01/03 08:44:29;;;;;;;5.13;3.43;;;9.00;99.90;;;9.02;86.50;102025.25;5012581;28;21212;-65
2023/01/03 08:46:59;;;;;;;6.30;3.20;;;9.10;99.90;;;9.05;86.93;102029.50;5007289;28;20678;-65
2023/01/03 08:49:26;;;;;;;3.03;2.70;;;9.10;99.90;;;9.06;86.79;102031.16;4995526;28;20631;-65
2023/01/03 08:51:53;;;;;;;3.10;2.70;;;9.10;99.90;;;9.12;86.41;102039.56;5013287;28;21307;-65
2023/01/03 08:54:20;;;;;;;4.17;2.30;;;9.20;99.90;;;9.25;86.94;102034.66;5031006;28;20632;-63
2023/01/03 08:56:47;;;;;;;2.63;2.17;;;9.30;99.90;;;9.18;86.01;102043.66;5030662;28;20714;-64
2023/01/03 08:59:14;;;;;;;2.80;2.13;;;9.30;99.90;;;9.33;86.77;102045.56;5011726;28;20624;-64
2023/01/03 09:01:41;;;;;;;2.50;2.37;;;9.40;99.90;;;9.66;85.53;102049.28;5018977;28;20641;-63
2023/01/03 09:04:08;;;;;;;3.97;3.43;;;9.70;99.90;;;10.42;83.71;102053.50;5011921;28;20653;-63
2023/01/03 09:06:35;;;;;;;4.37;3.97;;;10.40;99.90;;;11.55;80.03;102055.47;5019695;28;20656;-66
2023/01/03 09:09:07;;;;;;;3.20;2.87;;;11.50;99.90;;;12.54;74.78;102056.06;5015043;28;20686;-65
2023/01/03 09:11:34;;;;;;;7.33;2.60;;;12.60;99.90;;;12.76;71.32;102056.47;4999126;28;20617;-65
2023/01/03 09:14:00;;;;;;;2.57;2.37;;;13.00;99.90;;;12.42;70.64;102058.44;5014150;28;21087;-66
2023/01/03 09:16:27;;;;;;;3.03;2.33;;;12.60;99.90;;;12.03;71.79;102063.28;5018491;28;20673;-63
2023/01/03 09:18:54;;;;;;;6.50;2.30;;;12.20;99.90;;;11.66;73.60;102058.34;5021396;28;20624;-63
2023/01/03 09:21:21;;;;;;;2.20;2.00;;;11.80;99.90;;;11.30;75.29;102069.00;5030046;28;20682;-63
2023/01/03 09:23:48;;;;;;;2.93;2.70;;;11.40;99.90;;;11.05;77.19;102070.34;5011504;28;20621;-63
2023/01/03 09:26:15;;;;;;;3.27;2.97;;;11.10;99.90;;;11.02;78.12;102070.50;5013307;28;21016;-64
2023/01/03 09:28:42;;;;;;;2.43;2.23;;;11.10;99.90;;;11.07;78.83;102068.50;5006681;28;20999;-64
2023/01/03 09:31:09;;;;;;;2.57;2.37;;;11.10;99.90;;;10.97;78.28;102062.88;5002815;28;20648;-63
2023/01/03 09:33:36;;;;;;;3.33;1.90;;;11.10;99.90;;;11.02;78.36;102065.25;5011305;28;20720;-63
2023/01/03 09:36:03;;;;;;;2.30;1.50;;;11.10;99.90;;;11.04;78.22;102066.03;5024335;28;20676;-64
2023/01/03 09:38:30;;;;;;;1.93;1.77;;;11.10;99.90;;;10.98;78.88;102072.44;5030953;28;21163;-64
2023/01/03 09:41:07;;;;;;;1.90;1.80;;;11.00;99.90;;;10.85;79.46;102066.97;5029868;28;20639;-64
2023/01/03 09:43:42;;;;;;;10.50;2.00;;;10.90;99.90;;;10.70;80.41;102070.34;5027095;28;20724;-64
2023/01/03 09:46:17;;;;;;;1.60;1.50;;;10.70;99.90;;;10.57;80.49;102065.81;5007210;28;20655;-64
2023/01/03 09:48:45;;;;;;;1.90;1.80;;;10.60;99.90;;;10.41;82.12;102060.50;5026501;28;20660;-64
2023/01/03 10:03:43;;;;;;;2.00;1.90;;;9.90;99.90;;;9.90;86.08;102058.56;5010983;28;20742;-63
2023/01/03 10:06:36;;;;;;;2.20;2.07;;;9.90;99.90;;;9.93;85.09;102060.19;5013096;28;21017;-66
2023/01/03 10:09:42;;;;;;;2.60;1.90;;;9.90;99.90;;;9.91;85.02;102062.03;5010385;28;20674;-64
2023/01/03 10:12:23;;;;;;;2.20;2.10;;;9.90;99.90;;;9.92;84.40;102056.72;4991463;28;21211;-64
2023/01/03 10:15:25;;;;;;;2.00;1.80;;;9.90;99.90;;;9.91;84.41;102054.19;5009458;28;20626;-64
2023/01/03 10:18:47;;;;;;;2.17;2.07;;;9.90;99.90;;;9.88;84.86;102055.19;5018164;28;20616;-66
2023/01/03 10:21:56;;;;;;;1.93;1.73;;;9.90;99.90;;;9.90;85.16;102057.75;5020588;28;21279;-66
2023/01/03 10:24:36;;;;;;;2.20;2.10;;;9.80;99.90;;;9.87;85.73;102047.44;5030302;28;20612;-66
2023/01/03 10:27:20;;;;;;;2.20;2.10;;;9.90;99.90;;;9.88;85.68;102043.94;5014513;28;20664;-64
2023/01/03 10:29:53;;;;;;;3.60;2.13;;;9.80;99.90;;;9.96;84.48;102041.81;5017250;28;20641;-61
2023/01/03 10:33:00;;;;;;;2.57;2.07;;;9.90;99.90;;;10.06;84.67;102054.34;5013223;28;21066;-63
2023/01/03 10:35:30;;;;;;;2.37;2.23;;;10.00;99.90;;;10.16;84.35;102056.53;5011373;28;20677;-63
2023/01/03 10:37:58;;;;;;;3.27;2.97;;;10.10;99.90;;;10.29;84.35;102055.88;5011657;28;20625;-65
2023/01/03 10:40:44;;;;;;;2.17;2.00;;;10.20;99.90;;;10.50;83.03;102054.81;5010464;28;20638;-65
2023/01/03 10:43:27;;;;;;;2.50;2.30;;;10.40;99.90;;;10.65;82.69;102048.84;5016722;28;20660;-63
2023/01/03 10:46:04;;;;;;;1.93;1.83;;;10.60;99.90;;;10.75;81.29;102044.03;5007389;28;20744;-62
2023/01/03 10:48:49;;;;;;;1.77;1.67;;;10.70;99.90;;;10.82;81.12;102043.63;4991365;28;20645;-64
2023/01/03 10:51:54;;;;;;;2.43;2.33;;;10.80;99.90;;;10.80;80.29;102042.84;4994859;28;20694;-64
2023/01/03 10:54:46;;;;;;;2.43;2.23;;;10.80;99.90;;;10.72;81.13;102042.41;4992109;28;20668;-64
2023/01/03 10:57:45;;;;;;;2.53;2.17;;;10.70;99.90;;;10.66;81.01;102034.03;5012084;28;20740;-66
2023/01/03 11:00:32;;;;;;;2.80;2.47;;;10.60;99.90;;;10.63;81.75;102044.63;4989836;28;20643;-64
2023/01/03 11:03:12;;;;;;;2.43;2.23;;;10.60;99.90;;;10.59;81.98;102050.91;4996283;28;20633;-66
2023/01/03 11:05:46;;;;;;;1.77;1.77;;;10.50;99.90;;;10.59;81.60;102049.16;5003141;28;21083;-66
2023/01/03 11:08:44;;;;;;;2.90;2.70;;;10.50;99.90;;;10.60;82.21;102036.94;4988452;28;20633;-65
2023/01/03 11:11:36;;;;;;;2.60;2.40;;;10.50;99.90;;;10.61;81.68;102031.66;5001363;28;20628;-66
2023/01/03 11:14:17;;;;;;;2.70;2.60;;;10.60;99.90;;;10.64;81.54;102035.88;5003458;28;21181;-64
2023/01/03 11:16:44;;;;;;;4.50;2.70;;;10.60;99.90;;;10.68;81.50;102040.03;5017818;28;20683;-62
2023/01/03 11:19:17;;;;;;;2.03;1.93;;;10.60;99.90;;;10.65;81.72;102043.63;5012667;28;20718;-65
2023/01/03 11:22:06;;;;;;;1.40;1.40;;;10.60;99.90;;;10.65;80.60;102032.34;5009402;28;20629;-65
2023/01/03 11:25:00;;;;;;;1.07;1.07;;;10.60;99.90;;;10.65;79.50;102024.50;4990195;28;20609;-65
2023/01/03 11:28:10;;;;;;;1.10;1.10;;;10.60;99.90;;;10.65;79.54;102016.66;5007572;28;20633;-65
2023/01/03 11:31:32;;;;;;;1.53;1.10;;;10.60;99.90;;;10.67;79.32;102017.44;5011833;28;21297;-65
2023/01/03 11:34:39;;;;;;;1.50;1.50;;;10.60;99.90;;;10.71;79.83;102008.56;5014949;28;20687;-65
2023/01/03 11:38:11;;;;;;;0.90;0.90;;;10.60;99.90;;;10.88;80.09;102009.34;4991916;28;20629;-64
2023/01/03 11:41:01;;;;;;;10.53;5.80;;;10.80;99.90;;;11.10;77.80;102008.25;4956393;28;20654;-65
2023/01/03 11:44:15;;;;;;;8.90;5.90;;;11.00;99.90;;;11.28;76.99;102002.06;5011378;28;20641;-64
2023/01/03 11:46:56;;;;;;;1.10;1.00;;;11.20;99.90;;;11.35;76.17;101999.03;5014128;28;20637;-64
2023/01/03 11:50:02;;;;;;;1.43;1.33;;;11.30;99.90;;;11.39;76.31;101991.88;5014400;28;20641;-65
2023/01/03 11:52:46;;;;;;;4.20;1.50;;;11.30;99.90;;;11.46;75.61;101995.84;5010991;28;20624;-65
2023/01/03 11:55:43;;;;;;;1.13;1.10;;;11.40;99.90;;;11.53;74.87;101999.81;5004344;28;20713;-65
2023/01/03 11:58:19;;;;;;;2.00;0.90;;;11.40;99.90;;;11.51;74.71;101994.69;4996852;28;20626;-65
2023/01/03 12:01:11;;;;;;;0.87;0.87;;;11.50;99.90;;;11.51;74.37;101992.06;5014615;28;20632;-65
2023/01/03 12:03:56;;;;;;;0.87;0.87;;;11.40;99.90;;;11.50;74.60;101994.75;5015189;28;21077;-65
2023/01/03 12:06:51;;;;;;;0.77;0.77;;;11.40;99.90;;;11.58;73.27;101995.19;5014244;28;20656;-65